createdAt,value
2023-05-19T00:01:47.728Z,97490.84
2023-05-19T00:04:17.952Z,97490.38
2023-05-19T00:06:51.020Z,97479.72
2023-05-19T00:09:19.116Z,97480.53
2023-05-19T00:11:46.963Z,97475.91
2023-05-19T00:14:15.133Z,97480.56
2023-05-19T00:16:43.483Z,97481.19
2023-05-19T00:19:11.292Z,97486.16
2023-05-19T00:21:40.344Z,97481.09
2023-05-19T00:24:08.160Z,97479.47
2023-05-19T00:26:36.062Z,97478.88
2023-05-19T00:29:03.731Z,97465.09
2023-05-19T00:31:32.788Z,97465.97
2023-05-19T00:34:00.538Z,97459.09
2023-05-19T00:36:28.234Z,97467.50
2023-05-19T00:38:57.424Z,97468.25
2023-05-19T00:41:27.552Z,97462.53
2023-05-19T00:43:55.588Z,97465.22
2023-05-19T00:46:23.479Z,97461.41
2023-05-19T00:48:51.218Z,97456.03
2023-05-19T00:51:19.088Z,97461.41
2023-05-19T00:53:48.775Z,97463.69
2023-05-19T00:56:19.091Z,97461.34
2023-05-19T00:58:50.432Z,97463.59
2023-05-19T01:01:18.561Z,97461.38
2023-05-19T01:03:47.483Z,97456.03
2023-05-19T01:06:15.367Z,97462.91
2023-05-19T01:08:44.885Z,97457.50
2023-05-19T01:11:12.805Z,97459.81
2023-05-19T01:13:42.393Z,97460.63
2023-05-19T01:16:19.373Z,97452.84
2023-05-19T01:19:00.341Z,97456.41
2023-05-19T01:22:07.481Z,97450.41
2023-05-19T01:25:04.351Z,97456.69
2023-05-19T01:27:50.450Z,97463.91
2023-05-19T01:30:28.515Z,97461.19
2023-05-19T01:33:00.752Z,97463.13
2023-05-19T01:35:30.869Z,97469.22
2023-05-19T01:38:00.422Z,97464.06
2023-05-19T01:40:30.250Z,97468.72
2023-05-19T01:43:00.356Z,97463.78
2023-05-19T01:45:32.308Z,97467.97
2023-05-19T01:48:02.589Z,97464.59
2023-05-19T01:50:32.164Z,97458.50
2023-05-19T01:53:00.417Z,97466.69
2023-05-19T01:55:28.736Z,97455.47
2023-05-19T01:58:09.435Z,97461.28
2023-05-19T02:00:51.407Z,97460.13
2023-05-19T02:03:37.331Z,97460.91
2023-05-19T02:06:21.159Z,97461.28
2023-05-19T02:08:58.073Z,97460.16
2023-05-19T02:11:36.291Z,97458.00
2023-05-19T02:14:13.658Z,97460.41
2023-05-19T02:16:47.104Z,97455.59
2023-05-19T02:19:24.661Z,97452.56
2023-05-19T02:21:52.541Z,97446.94
2023-05-19T02:24:20.276Z,97447.97
2023-05-19T02:26:48.026Z,97449.56
2023-05-19T02:29:16.082Z,97451.53
2023-05-19T02:31:45.302Z,97454.00
2023-05-19T02:34:13.389Z,97454.38
2023-05-19T02:36:42.486Z,97454.75
2023-05-19T02:39:10.720Z,97453.63
2023-05-19T02:41:38.705Z,97455.03
2023-05-19T02:44:06.400Z,97453.09
2023-05-19T02:46:34.322Z,97448.31
2023-05-19T02:49:03.605Z,97449.38
2023-05-19T02:51:31.448Z,97447.75
2023-05-19T02:53:59.126Z,97449.72
2023-05-19T02:56:26.952Z,97452.63
2023-05-19T02:58:54.535Z,97449.03
2023-05-19T03:01:22.278Z,97442.88
2023-05-19T03:03:50.128Z,97443.50
2023-05-19T03:06:21.581Z,97442.41
2023-05-19T03:08:50.726Z,97453.06
2023-05-19T03:11:18.472Z,97450.06
2023-05-19T03:13:46.250Z,97441.81
2023-05-19T03:16:14.034Z,97443.16
2023-05-19T03:18:43.052Z,97444.69
2023-05-19T03:21:10.737Z,97445.91
2023-05-19T03:23:39.775Z,97428.78
2023-05-19T03:26:07.826Z,97428.75
2023-05-19T03:28:35.510Z,97430.16
2023-05-19T03:31:03.749Z,97443.19
2023-05-19T03:33:31.808Z,97439.97
2023-05-19T03:35:59.458Z,97430.56
2023-05-19T03:38:27.061Z,97425.31
2023-05-19T03:40:56.080Z,97425.72
2023-05-19T03:43:23.783Z,97424.13
2023-05-19T03:45:51.461Z,97436.97
2023-05-19T03:48:21.154Z,97439.31
2023-05-19T03:50:49.056Z,97433.25
2023-05-19T03:53:17.753Z,97438.63
2023-05-19T03:55:45.804Z,97448.75
2023-05-19T03:58:15.067Z,97447.16
2023-05-19T04:00:43.001Z,97446.25
2023-05-19T04:03:10.748Z,97441.53
2023-05-19T04:05:39.747Z,97457.00
2023-05-19T04:08:07.433Z,97459.28
2023-05-19T04:10:35.151Z,97459.13
2023-05-19T04:13:02.887Z,97458.72
2023-05-19T04:15:32.032Z,97453.66
2023-05-19T04:17:59.746Z,97465.03
2023-05-19T04:20:27.890Z,97465.06
2023-05-19T04:22:55.514Z,97461.41
2023-05-19T04:25:23.217Z,97455.78
2023-05-19T04:27:50.952Z,97455.44
2023-05-19T04:30:18.899Z,97463.50
2023-05-19T04:32:48.132Z,97471.34
2023-05-19T04:35:15.886Z,97467.88
2023-05-19T04:37:44.085Z,97474.81
2023-05-19T04:40:12.979Z,97470.66
2023-05-19T04:42:40.644Z,97477.34
2023-05-19T04:45:10.148Z,97474.56
2023-05-19T04:47:38.139Z,97472.06
2023-05-19T04:50:08.184Z,97471.00
2023-05-19T04:52:35.875Z,97482.31
2023-05-19T04:55:04.061Z,97476.22
2023-05-19T04:57:32.678Z,97482.63
2023-05-19T05:00:00.621Z,97470.69
2023-05-19T05:02:29.718Z,97475.41
2023-05-19T05:04:57.729Z,97486.03
2023-05-19T05:07:27.409Z,97480.22
2023-05-19T05:09:57.347Z,97481.66
2023-05-19T05:12:25.690Z,97471.84
2023-05-19T05:14:54.014Z,97464.78
2023-05-19T05:17:22.207Z,97466.69
2023-05-19T05:19:50.306Z,97457.56
2023-05-19T05:22:19.015Z,97464.47
2023-05-19T05:24:49.058Z,97458.75
2023-05-19T05:27:17.011Z,97460.25
2023-05-19T05:29:44.706Z,97462.56
2023-05-19T05:32:12.638Z,97457.75
2023-05-19T05:34:40.728Z,97451.34
2023-05-19T05:37:09.622Z,97451.38
2023-05-19T05:39:37.811Z,97449.94
2023-05-19T05:42:07.650Z,97452.91
2023-05-19T05:44:35.515Z,97448.31
2023-05-19T05:47:03.871Z,97451.97
2023-05-19T05:49:32.199Z,97446.38
2023-05-19T05:52:06.111Z,97445.63
2023-05-19T05:54:35.296Z,97448.66
2023-05-19T05:57:04.590Z,97443.22
2023-05-19T05:59:33.613Z,97441.81
2023-05-19T06:02:01.529Z,97448.44
2023-05-19T06:04:29.260Z,97441.06
2023-05-19T06:06:56.946Z,97441.19
2023-05-19T06:09:25.153Z,97440.44
2023-05-19T06:11:52.874Z,97441.88
2023-05-19T06:14:20.570Z,97443.00
2023-05-19T06:16:49.549Z,97442.84
2023-05-19T06:19:18.219Z,97438.97
2023-05-19T06:21:47.861Z,97442.31
2023-05-19T06:24:15.518Z,97438.34
2023-05-19T06:26:43.343Z,97439.34
2023-05-19T06:29:12.010Z,97435.84
2023-05-19T06:31:39.670Z,97431.13
2023-05-19T06:34:08.770Z,97426.72
2023-05-19T06:36:37.880Z,97426.75
2023-05-19T06:39:05.526Z,97428.03
2023-05-19T06:41:33.129Z,97434.41
2023-05-19T06:44:00.879Z,97427.41
2023-05-19T06:46:28.581Z,97432.72
2023-05-19T06:48:56.316Z,97425.59
2023-05-19T06:51:25.716Z,97422.75
2023-05-19T06:53:53.810Z,97428.25
2023-05-19T06:56:21.553Z,97422.81
2023-05-19T06:58:49.245Z,97424.19
2023-05-19T07:01:16.923Z,97427.38
2023-05-19T07:03:44.777Z,97425.53
2023-05-19T07:06:12.928Z,97422.44
2023-05-19T07:08:42.262Z,97427.53
2023-05-19T07:11:10.291Z,97423.84
2023-05-19T07:13:38.228Z,97426.97
2023-05-19T07:16:06.134Z,97424.16
2023-05-19T07:18:34.044Z,97428.88
2023-05-19T07:21:01.862Z,97423.69
2023-05-19T07:23:29.537Z,97434.84
2023-05-19T07:25:58.548Z,97431.28
2023-05-19T07:28:27.298Z,97432.31
2023-05-19T07:30:55.014Z,97431.25
2023-05-19T07:33:22.881Z,97427.09
2023-05-19T07:35:50.586Z,97423.00
2023-05-19T07:38:18.343Z,97430.13
2023-05-19T07:40:45.942Z,97423.66
2023-05-19T07:43:15.003Z,97409.53
2023-05-19T07:45:42.720Z,97416.91
2023-05-19T07:48:10.551Z,97416.50
2023-05-19T07:50:38.284Z,97413.69
2023-05-19T07:53:06.020Z,97408.03
2023-05-19T07:55:33.697Z,97406.25
2023-05-19T07:58:01.369Z,97413.03
2023-05-19T08:00:30.581Z,97394.25
2023-05-19T08:02:58.626Z,97395.88
2023-05-19T08:05:26.385Z,97401.66
2023-05-19T08:07:54.046Z,97404.34
2023-05-19T08:10:21.819Z,97406.75
2023-05-19T08:12:49.440Z,97409.81
2023-05-19T08:15:17.159Z,97402.53
2023-05-19T08:17:48.482Z,97403.31
2023-05-19T08:20:16.271Z,97408.94
2023-05-19T08:22:43.959Z,97402.00
2023-05-19T08:25:11.628Z,97398.78
2023-05-19T08:27:39.310Z,97398.47
2023-05-19T08:30:09.092Z,97404.97
2023-05-19T08:32:36.787Z,97392.94
2023-05-19T08:35:06.693Z,97395.31
2023-05-19T08:37:34.573Z,97390.13
2023-05-19T08:40:02.161Z,97388.31
2023-05-19T08:42:30.182Z,97396.25
2023-05-19T08:44:58.409Z,97389.69
2023-05-19T08:47:26.224Z,97400.81
2023-05-19T08:50:04.785Z,97393.84
2023-05-19T08:52:50.904Z,97400.06
2023-05-19T08:55:34.310Z,97390.59
2023-05-19T08:58:04.418Z,97382.41
2023-05-19T09:00:32.864Z,97384.63
2023-05-19T09:03:16.979Z,97381.44
2023-05-19T09:05:50.857Z,97381.13
2023-05-19T09:08:20.046Z,97376.31
2023-05-19T09:10:47.758Z,97375.13
2023-05-19T09:13:17.017Z,97375.94
2023-05-19T09:15:46.193Z,97372.84
2023-05-19T09:18:14.577Z,97366.75
2023-05-19T09:20:44.372Z,97357.66
2023-05-19T09:23:16.740Z,97356.19
2023-05-19T09:25:50.401Z,97345.06
2023-05-19T09:28:25.196Z,97346.53
2023-05-19T09:31:02.669Z,97350.03
2023-05-19T09:33:34.410Z,97351.91
2023-05-19T09:36:02.715Z,97351.69
2023-05-19T09:38:30.391Z,97342.13
2023-05-19T09:41:00.270Z,97348.44
2023-05-19T09:43:28.901Z,97351.81
2023-05-19T09:45:59.812Z,97347.72
2023-05-19T09:48:27.897Z,97345.78
2023-05-19T09:50:55.999Z,97355.19
2023-05-19T09:53:24.608Z,97336.13
2023-05-19T09:55:56.248Z,97330.53
2023-05-19T09:58:25.692Z,97341.44
2023-05-19T10:00:54.030Z,97335.56
2023-05-19T10:03:25.018Z,97340.38
2023-05-19T10:05:53.713Z,97335.63
2023-05-19T10:08:23.450Z,97334.84
2023-05-19T10:10:51.706Z,97332.63
2023-05-19T10:13:21.636Z,97337.09
2023-05-19T10:15:58.601Z,97345.53
2023-05-19T10:18:27.996Z,97342.75
2023-05-19T10:20:56.216Z,97329.72
2023-05-19T10:23:23.990Z,97334.13
2023-05-19T10:25:57.654Z,97337.25
2023-05-19T10:28:34.672Z,97334.84
2023-05-19T10:31:10.135Z,97330.00
2023-05-19T10:33:59.905Z,97326.13
2023-05-19T10:36:47.563Z,97338.31
2023-05-19T10:39:20.985Z,97332.63
2023-05-19T10:42:01.275Z,97323.09
2023-05-19T10:44:46.446Z,97321.88
2023-05-19T10:47:23.465Z,97321.47
2023-05-19T10:49:52.451Z,97316.56
2023-05-19T10:52:20.751Z,97324.91
2023-05-19T10:54:48.694Z,97319.91
2023-05-19T10:57:18.319Z,97310.69
2023-05-19T10:59:46.108Z,97309.34
2023-05-19T11:02:40.533Z,97306.19
2023-05-19T11:05:11.550Z,97306.63
2023-05-19T11:07:41.860Z,97306.19
2023-05-19T11:10:10.484Z,97306.06
2023-05-19T11:12:43.766Z,97299.84
2023-05-19T11:15:15.592Z,97302.81
2023-05-19T11:17:49.102Z,97309.81
2023-05-19T11:20:24.267Z,97303.59
2023-05-19T11:23:05.017Z,97294.69
2023-05-19T11:25:43.949Z,97296.00
2023-05-19T11:28:12.325Z,97290.91
2023-05-19T11:30:42.707Z,97295.72
2023-05-19T11:33:13.174Z,97290.44
2023-05-19T11:35:43.496Z,97305.19
2023-05-19T11:38:11.709Z,97291.88
2023-05-19T11:40:41.612Z,97283.97
2023-05-19T11:43:09.402Z,97289.28
2023-05-19T11:45:37.749Z,97285.41
2023-05-19T11:48:05.939Z,97273.03
2023-05-19T11:50:35.125Z,97269.88
2023-05-19T11:53:02.984Z,97285.25
2023-05-19T11:55:31.172Z,97279.69
2023-05-19T12:00:35.389Z,97269.00
2023-05-19T12:03:03.411Z,97268.97
2023-05-19T12:05:34.497Z,97270.84
2023-05-19T12:08:06.021Z,97253.41
2023-05-19T12:10:34.753Z,97257.19
2023-05-19T12:13:03.252Z,97256.28
2023-05-19T12:15:32.069Z,97258.34
2023-05-19T12:18:01.303Z,97255.88
2023-05-19T12:20:30.712Z,97256.16
2023-05-19T12:22:59.982Z,97245.63
2023-05-19T12:25:29.755Z,97252.28
2023-05-19T12:27:59.423Z,97262.47
2023-05-19T12:30:28.738Z,97253.63
2023-05-19T12:32:57.778Z,97253.22
2023-05-19T12:35:29.871Z,97250.28
2023-05-19T12:38:02.860Z,97255.34
2023-05-19T12:40:33.963Z,97257.50
2023-05-19T12:43:02.520Z,97248.69
2023-05-19T12:45:34.810Z,97246.63
2023-05-19T12:48:05.322Z,97245.72
2023-05-19T12:50:33.621Z,97242.66
2023-05-19T12:53:01.485Z,97235.88
2023-05-19T12:55:30.213Z,97244.09
2023-05-19T12:57:59.300Z,97239.84
2023-05-19T13:00:27.044Z,97244.25
2023-05-19T13:02:57.252Z,97235.53
2023-05-19T13:05:25.330Z,97236.41
2023-05-19T13:07:57.341Z,97232.34
2023-05-19T13:10:28.107Z,97228.88
2023-05-19T13:12:59.654Z,97235.06
2023-05-19T13:15:30.540Z,97223.00
2023-05-19T13:18:00.530Z,97213.53
2023-05-19T13:20:28.693Z,97210.00
2023-05-19T13:22:56.414Z,97205.31
2023-05-19T13:25:24.163Z,97203.56
2023-05-19T13:27:56.790Z,97210.38
2023-05-19T13:30:24.604Z,97208.41
2023-05-19T13:32:54.079Z,97212.06
2023-05-19T13:35:21.975Z,97215.09
2023-05-19T13:37:49.975Z,97216.50
2023-05-19T13:40:17.719Z,97209.97
2023-05-19T13:42:45.900Z,97213.47
2023-05-19T13:45:13.989Z,97213.03
2023-05-19T13:47:41.734Z,97218.66
2023-05-19T13:50:10.911Z,97218.31
2023-05-19T13:52:38.693Z,97223.06
2023-05-19T13:55:07.181Z,97217.09
2023-05-19T13:57:34.828Z,97217.44
2023-05-19T14:00:04.086Z,97221.66
2023-05-19T14:02:33.158Z,97221.50
2023-05-19T14:05:06.104Z,97215.88
2023-05-19T14:07:35.691Z,97207.44
2023-05-19T14:10:05.083Z,97215.19
2023-05-19T14:12:44.907Z,97212.47
2023-05-19T14:15:19.832Z,97226.56
2023-05-19T14:17:47.962Z,97224.56
2023-05-19T14:20:15.702Z,97211.75
2023-05-19T14:22:44.729Z,97214.66
2023-05-19T14:25:12.353Z,97226.66
2023-05-19T14:27:40.109Z,97219.81
2023-05-19T14:30:09.282Z,97222.44
2023-05-19T14:32:36.947Z,97219.44
2023-05-19T14:35:05.540Z,97225.59
2023-05-19T14:37:33.485Z,97222.69
2023-05-19T14:40:02.932Z,97211.97
2023-05-19T14:42:30.836Z,97226.88
2023-05-19T14:44:58.731Z,97226.16
2023-05-19T14:47:27.289Z,97211.25
2023-05-19T14:49:55.100Z,97216.88
2023-05-19T14:52:23.644Z,97213.34
2023-05-19T14:54:51.547Z,97205.47
2023-05-19T14:57:21.470Z,97195.81
2023-05-19T14:59:49.257Z,97185.56
2023-05-19T15:02:17.002Z,97206.34
2023-05-19T15:04:44.978Z,97195.00
2023-05-19T15:07:14.161Z,97208.22
2023-05-19T15:09:42.062Z,97198.53
2023-05-19T15:12:09.853Z,97204.97
2023-05-19T15:14:39.502Z,97212.09
2023-05-19T15:17:07.571Z,97200.66
2023-05-19T15:19:35.995Z,97193.53
2023-05-19T15:22:03.761Z,97198.31
2023-05-19T15:24:31.413Z,97200.88
2023-05-19T15:26:59.708Z,97197.22
2023-05-19T15:29:27.743Z,97213.50
2023-05-19T15:31:56.702Z,97206.56
2023-05-19T15:34:25.669Z,97204.56
2023-05-19T15:36:53.560Z,97209.31
2023-05-19T15:39:21.320Z,97201.78
2023-05-19T15:41:50.373Z,97201.09
2023-05-19T15:44:18.040Z,97200.06
2023-05-19T15:46:45.765Z,97200.16
2023-05-19T15:49:14.851Z,97197.19
2023-05-19T15:51:43.345Z,97209.81
2023-05-19T15:54:11.494Z,97213.84
2023-05-19T15:56:39.569Z,97220.06
2023-05-19T15:59:07.696Z,97213.63
2023-05-19T16:01:36.031Z,97216.53
2023-05-19T16:04:04.269Z,97214.50
2023-05-19T16:06:33.497Z,97207.13
2023-05-19T16:09:01.303Z,97208.00
2023-05-19T16:11:29.210Z,97205.94
2023-05-19T16:13:56.932Z,97204.84
2023-05-19T16:16:24.748Z,97205.16
2023-05-19T16:18:52.722Z,97199.72
2023-05-19T16:21:20.937Z,97200.91
2023-05-19T16:23:49.974Z,97194.00
2023-05-19T16:26:18.108Z,97210.69
2023-05-19T16:28:46.782Z,97190.56
2023-05-19T16:31:15.881Z,97202.38
2023-05-19T16:33:43.990Z,97188.31
2023-05-19T16:36:13.032Z,97185.88
2023-05-19T16:38:40.699Z,97189.00
2023-05-19T16:41:15.361Z,97188.03
2023-05-19T16:43:43.561Z,97179.41
2023-05-19T16:46:11.564Z,97186.44
2023-05-19T16:48:40.407Z,97192.66
2023-05-19T16:51:08.822Z,97190.78
2023-05-19T16:53:36.484Z,97187.00
2023-05-19T16:56:04.823Z,97181.59
2023-05-19T16:58:33.982Z,97174.22
2023-05-19T17:01:02.243Z,97178.28
2023-05-19T17:03:31.310Z,97172.06
2023-05-19T17:05:59.383Z,97185.69
2023-05-19T17:08:26.970Z,97182.59
2023-05-19T17:10:54.703Z,97178.75
2023-05-19T17:13:22.620Z,97183.47
2023-05-19T17:15:52.270Z,97183.09
2023-05-19T17:18:19.874Z,97179.78
2023-05-19T17:20:47.726Z,97180.22
2023-05-19T17:23:15.340Z,97191.91
2023-05-19T17:25:42.996Z,97199.28
2023-05-19T17:28:11.881Z,97190.56
2023-05-19T17:30:40.203Z,97194.75
2023-05-19T17:33:09.296Z,97196.50
2023-05-19T17:35:37.711Z,97195.63
2023-05-19T17:38:05.715Z,97185.19
2023-05-19T17:40:34.025Z,97188.81
2023-05-19T17:43:01.875Z,97179.47
2023-05-19T17:45:29.578Z,97180.63
2023-05-19T17:47:57.509Z,97178.75
2023-05-19T17:50:26.763Z,97173.19
2023-05-19T17:52:55.242Z,97180.59
2023-05-19T17:55:24.379Z,97174.06
2023-05-19T17:57:52.132Z,97179.59
2023-05-19T18:00:20.966Z,97185.22
2023-05-19T18:02:49.541Z,97181.53
2023-05-19T18:05:18.053Z,97184.50
2023-05-19T18:07:49.344Z,97182.41
2023-05-19T18:10:18.723Z,97188.69
2023-05-19T18:12:46.568Z,97192.31
2023-05-19T18:15:14.377Z,97186.00
2023-05-19T18:17:42.269Z,97182.69
2023-05-19T18:20:11.547Z,97188.56
2023-05-19T18:22:39.243Z,97189.34
2023-05-19T18:25:09.481Z,97188.38
2023-05-19T18:27:37.412Z,97185.97
2023-05-19T18:30:06.631Z,97183.25
2023-05-19T18:32:34.322Z,97183.56
2023-05-19T18:35:02.257Z,97184.31
2023-05-19T18:37:32.677Z,97179.47
2023-05-19T18:40:00.481Z,97176.50
2023-05-19T18:42:29.885Z,97181.56
2023-05-19T18:44:57.487Z,97185.91
2023-05-19T18:47:27.407Z,97186.50
2023-05-19T18:49:55.131Z,97192.59
2023-05-19T18:52:22.748Z,97190.13
2023-05-19T18:54:50.441Z,97189.38
2023-05-19T18:57:18.095Z,97186.19
2023-05-19T18:59:47.313Z,97181.91
2023-05-19T19:04:56.580Z,97181.31
2023-05-19T19:07:24.937Z,97177.31
2023-05-19T19:09:53.673Z,97180.47
2023-05-19T19:12:21.533Z,97166.06
2023-05-19T19:14:50.786Z,97180.31
2023-05-19T19:17:18.403Z,97188.38
2023-05-19T19:19:46.158Z,97189.53
2023-05-19T19:22:14.134Z,97190.38
2023-05-19T19:24:42.004Z,97199.59
2023-05-19T19:27:09.871Z,97194.38
2023-05-19T19:29:37.618Z,97197.84
2023-05-19T19:32:07.496Z,97204.53
2023-05-19T19:34:35.180Z,97199.25
2023-05-19T19:37:04.130Z,97212.13
2023-05-19T19:39:31.784Z,97208.59
2023-05-19T19:41:59.462Z,97207.88
2023-05-19T19:44:27.152Z,97201.09
2023-05-19T19:46:55.516Z,97203.50
2023-05-19T19:49:24.512Z,97207.16
2023-05-19T19:51:52.365Z,97203.47
2023-05-19T19:54:20.109Z,97210.28
2023-05-19T19:56:47.760Z,97205.16
2023-05-19T19:59:15.405Z,97203.75
2023-05-19T20:01:43.560Z,97206.22
2023-05-19T20:04:11.747Z,97201.91
2023-05-19T20:06:41.021Z,97207.59
2023-05-19T20:09:09.997Z,97212.06
2023-05-19T20:11:38.002Z,97208.63
2023-05-19T20:14:05.743Z,97210.59
2023-05-19T20:16:33.468Z,97204.25
2023-05-19T20:19:02.282Z,97203.50
2023-05-19T20:21:30.233Z,97207.06
2023-05-19T20:23:59.201Z,97206.75
2023-05-19T20:26:26.778Z,97209.44
2023-05-19T20:28:54.775Z,97206.03
2023-05-19T20:31:22.465Z,97210.25
2023-05-19T20:33:50.175Z,97217.50
2023-05-19T20:36:18.517Z,97205.63
2023-05-19T20:38:46.134Z,97204.53
2023-05-19T20:41:15.625Z,97201.69
2023-05-19T20:43:43.401Z,97203.53
2023-05-19T20:46:11.371Z,97209.03
2023-05-19T20:48:39.183Z,97206.78
2023-05-19T20:51:07.126Z,97212.09
2023-05-19T20:53:35.220Z,97212.06
2023-05-19T20:56:04.492Z,97205.19
2023-05-19T20:58:33.725Z,97202.88
2023-05-19T21:01:01.607Z,97199.16
2023-05-19T21:03:29.344Z,97206.09
2023-05-19T21:05:56.985Z,97202.22
2023-05-19T21:08:26.219Z,97208.38
2023-05-19T21:10:54.129Z,97206.06
2023-05-19T21:13:21.754Z,97210.56
2023-05-19T21:15:51.747Z,97200.69
2023-05-19T21:18:19.450Z,97205.28
2023-05-19T21:20:47.101Z,97202.97
2023-05-19T21:23:15.062Z,97200.38
2023-05-19T21:25:45.193Z,97199.25
2023-05-19T21:28:13.088Z,97193.47
2023-05-19T21:30:40.836Z,97190.75
2023-05-19T21:33:10.098Z,97196.09
2023-05-19T21:35:37.959Z,97192.34
2023-05-19T21:38:15.707Z,97194.25
2023-05-19T21:40:51.865Z,97191.94
2023-05-19T21:43:19.560Z,97191.97
2023-05-19T21:45:48.298Z,97198.47
2023-05-19T21:48:17.690Z,97183.19
2023-05-19T21:50:46.426Z,97186.63
2023-05-19T21:53:14.275Z,97183.53
2023-05-19T21:55:42.016Z,97184.63
2023-05-19T21:58:13.436Z,97181.63
2023-05-19T22:00:41.145Z,97184.72
2023-05-19T22:03:09.174Z,97171.31
2023-05-19T22:05:38.538Z,97168.22
2023-05-19T22:08:06.226Z,97170.16
2023-05-19T22:10:34.350Z,97173.13
2023-05-19T22:13:02.089Z,97173.94
2023-05-19T22:15:30.043Z,97180.56
2023-05-19T22:17:57.760Z,97180.53
2023-05-19T22:20:25.802Z,97180.91
2023-05-19T22:22:54.728Z,97184.38
2023-05-19T22:25:22.628Z,97177.88
2023-05-19T22:27:50.441Z,97183.22
2023-05-19T22:30:18.169Z,97182.75
2023-05-19T22:32:46.083Z,97177.06
2023-05-19T22:35:14.104Z,97176.31
2023-05-19T22:37:41.776Z,97177.13
2023-05-19T22:40:11.622Z,97180.16
2023-05-19T22:42:39.277Z,97178.66
2023-05-19T22:45:08.111Z,97186.28
2023-05-19T22:47:35.992Z,97188.63
2023-05-19T22:50:04.195Z,97179.41
2023-05-19T22:52:32.090Z,97183.63
2023-05-19T22:55:00.020Z,97182.09
2023-05-19T22:57:29.128Z,97180.94
2023-05-19T22:59:56.800Z,97177.50
2023-05-19T23:02:24.559Z,97170.63
2023-05-19T23:04:52.349Z,97182.47
2023-05-19T23:07:19.996Z,97166.03
2023-05-19T23:09:47.636Z,97174.44
2023-05-19T23:12:15.235Z,97165.59
2023-05-19T23:14:44.289Z,97167.56
2023-05-19T23:17:13.382Z,97176.75
2023-05-19T23:19:44.272Z,97177.13
2023-05-19T23:22:11.960Z,97173.66
2023-05-19T23:24:39.574Z,97170.97
2023-05-19T23:27:07.150Z,97174.81
2023-05-19T23:29:34.933Z,97169.09
2023-05-19T23:32:04.915Z,97167.56
2023-05-19T23:34:32.535Z,97170.22
2023-05-19T23:37:00.156Z,97176.00
2023-05-19T23:39:27.770Z,97174.81
2023-05-19T23:41:55.375Z,97174.06
2023-05-19T23:44:23.071Z,97172.50
2023-05-19T23:46:50.716Z,97170.59
2023-05-19T23:49:22.210Z,97170.59
2023-05-19T23:51:49.789Z,97172.84
2023-05-19T23:54:17.464Z,97167.03
2023-05-19T23:56:46.118Z,97168.25
2023-05-19T23:59:13.806Z,97164.38
